Time;durP1;ratioP1;P1;durP2;ratioP2;P2;SDS_P1;SDS_P2;PMS_P1;PMS_P2;Temp;Humidity;BMP_temperature;BMP_pressure;BME280_temperature;BME280_humidity;BME280_pressure;Samples;Min_cycle;Max_cycle;Signal;HPM_P1;HPM_P2
2023/09/03 00:02:06;;;;;;;5.10;1.55;;;22.50;73.40;;;;;;2484733;55;21077;-67
2023/09/03 00:04:32;;;;;;;2.50;1.30;;;22.50;73.50;;;;;;2256773;56;20962;-68
2023/09/03 00:06:59;;;;;;;2.67;1.45;;;22.50;73.60;;;;;;2255765;56;21002;-67
2023/09/03 00:09:26;;;;;;;5.30;1.77;;;22.40;73.50;;;;;;2257773;56;20991;-69
2023/09/03 00:11:52;;;;;;;3.20;1.73;;;22.40;73.50;;;;;;2487134;55;21018;-68
2023/09/03 00:14:20;;;;;;;4.03;1.87;;;22.40;73.80;;;;;;2259714;56;20968;-68
2023/09/03 00:16:50;;;;;;;3.05;1.60;;;22.40;73.90;;;;;;2256681;56;20967;-68
2023/09/03 00:19:17;;;;;;;3.45;1.50;;;22.40;73.70;;;;;;2482881;55;21108;-68
2023/09/03 00:21:43;;;;;;;3.58;1.75;;;22.40;74.00;;;;;;2477622;55;20970;-70
2023/09/03 00:24:10;;;;;;;3.25;1.75;;;22.40;74.00;;;;;;2483977;55;21038;-68
2023/09/03 00:26:36;;;;;;;3.67;1.70;;;22.30;74.00;;;;;;2485261;55;20961;-68
2023/09/03 00:29:09;;;;;;;2.60;1.30;;;22.30;74.00;;;;;;2484360;55;21868;-66
2023/09/03 00:31:40;;;;;;;2.92;1.52;;;22.30;73.50;;;;;;2484198;55;20947;-68
2023/09/03 00:34:07;;;;;;;3.22;1.50;;;22.30;73.80;;;;;;2482449;55;20981;-67
2023/09/03 00:36:35;;;;;;;3.62;1.62;;;22.30;73.80;;;;;;2484064;55;21006;-68
2023/09/03 00:39:01;;;;;;;3.03;1.27;;;22.30;73.70;;;;;;2483268;55;21009;-67
2023/09/03 00:41:29;;;;;;;3.30;1.87;;;22.20;73.60;;;;;;2483684;55;20958;-68
2023/09/03 00:43:55;;;;;;;3.90;1.60;;;22.20;73.60;;;;;;2257567;56;21366;-68
2023/09/03 00:46:22;;;;;;;3.22;1.50;;;22.20;73.60;;;;;;2235215;56;21022;-68
2023/09/03 00:48:48;;;;;;;3.08;1.80;;;22.20;73.70;;;;;;2490758;55;21472;-68
2023/09/03 00:51:14;;;;;;;2.55;1.23;;;22.10;73.70;;;;;;2255555;56;21042;-67
2023/09/03 00:53:43;;;;;;;2.50;1.33;;;22.10;73.70;;;;;;2490653;55;20983;-67
2023/09/03 00:56:10;;;;;;;2.90;1.48;;;22.10;73.70;;;;;;2256313;56;21066;-67
2023/09/03 00:58:39;;;;;;;2.92;1.52;;;22.10;73.80;;;;;;2256500;56;21008;-67
2023/09/03 01:01:07;;;;;;;3.42;1.62;;;22.10;73.70;;;;;;2256160;56;21880;-67
2023/09/03 01:03:35;;;;;;;2.60;1.45;;;22.10;73.80;;;;;;2256761;56;21753;-67
2023/09/03 01:06:02;;;;;;;2.87;1.33;;;22.00;73.80;;;;;;2483379;55;20982;-68
2023/09/03 01:08:28;;;;;;;2.85;1.40;;;22.00;73.80;;;;;;2257140;56;21066;-69
2023/09/03 01:13:41;;;;;;;3.25;1.80;;;22.00;73.60;;;;;;2483063;55;21025;-67
2023/09/03 01:16:11;;;;;;;2.47;1.20;;;22.00;72.70;;;;;;2483724;55;20998;-67
2023/09/03 01:18:38;;;;;;;3.72;1.60;;;21.90;73.60;;;;;;2256814;56;20991;-67
2023/09/03 01:28:04;;;;;;;4.15;1.60;;;21.90;73.80;;;;;;2242187;56;20975;-68
2023/09/03 01:30:31;;;;;;;4.28;1.10;;;21.90;73.20;;;;;;2257293;55;20962;-68
2023/09/03 01:32:57;;;;;;;3.70;1.08;;;21.80;73.80;;;;;;2256117;56;21002;-68
2023/09/03 01:35:25;;;;;;;2.53;1.10;;;21.80;73.90;;;;;;2257333;56;20970;-69
2023/09/03 01:37:52;;;;;;;3.40;1.35;;;21.70;73.80;;;;;;2483696;55;21017;-68
2023/09/03 01:40:18;;;;;;;2.58;1.27;;;21.70;73.90;;;;;;2483312;55;20974;-69
2023/09/03 01:42:45;;;;;;;2.60;1.20;;;21.70;73.90;;;;;;2469365;55;20991;-67
2023/09/03 01:45:11;;;;;;;4.18;1.50;;;21.60;73.80;;;;;;2238447;56;21041;-67
2023/09/03 01:47:42;;;;;;;2.50;1.15;;;21.60;73.70;;;;;;2481418;55;20976;-69
2023/09/03 01:50:17;;;;;;;2.87;1.55;;;21.60;73.70;;;;;;2483549;55;21022;-69
2023/09/03 01:53:02;;;;;;;3.20;1.52;;;21.50;73.50;;;;;;2271659;56;20978;-69
2023/09/03 01:55:28;;;;;;;3.22;1.45;;;21.50;73.30;;;;;;2282509;56;21026;-68
2023/09/03 01:57:56;;;;;;;3.80;1.40;;;21.50;74.00;;;;;;2282532;56;21495;-67
2023/09/03 02:00:23;;;;;;;5.32;1.37;;;21.50;73.90;;;;;;2508560;55;20945;-66
2023/09/03 02:02:51;;;;;;;2.53;1.27;;;21.40;73.80;;;;;;2281455;56;20973;-68
2023/09/03 02:05:17;;;;;;;2.97;1.30;;;21.40;73.90;;;;;;2482730;55;21017;-68
2023/09/03 02:07:44;;;;;;;3.15;1.10;;;21.40;73.90;;;;;;2256607;56;21008;-67
2023/09/03 02:10:10;;;;;;;2.35;1.15;;;21.40;73.90;;;;;;2484215;55;21005;-69
2023/09/03 02:12:38;;;;;;;3.67;1.40;;;21.30;73.70;;;;;;2483137;55;20957;-68
2023/09/03 02:15:05;;;;;;;4.65;1.40;;;21.30;73.60;;;;;;2246567;56;21052;-69
2023/09/03 02:17:31;;;;;;;2.83;1.20;;;21.20;73.60;;;;;;2249328;56;20929;-68
2023/09/03 02:19:59;;;;;;;2.67;1.42;;;21.20;73.70;;;;;;2256954;56;20985;-67
2023/09/03 02:22:25;;;;;;;2.60;1.30;;;21.20;73.80;;;;;;2257002;56;20977;-67
2023/09/03 02:24:51;;;;;;;2.40;1.20;;;21.20;73.80;;;;;;2485390;55;20949;-70
2023/09/03 02:27:18;;;;;;;2.67;1.30;;;21.10;73.60;;;;;;2484956;55;21714;-66
2023/09/03 02:29:44;;;;;;;3.72;1.15;;;21.10;73.60;;;;;;2484870;55;21063;-67
2023/09/03 02:32:11;;;;;;;2.83;1.33;;;21.10;73.60;;;;;;2484181;55;21391;-67
2023/09/03 02:34:38;;;;;;;2.35;1.20;;;21.10;73.70;;;;;;2484926;55;20929;-68
2023/09/03 02:37:04;;;;;;;2.80;1.30;;;21.00;73.70;;;;;;2485047;55;20991;-68
2023/09/03 02:39:31;;;;;;;2.75;1.10;;;21.00;73.80;;;;;;2257003;56;21061;-66
2023/09/03 02:41:57;;;;;;;2.00;1.00;;;21.00;73.80;;;;;;2256935;56;20981;-69
2023/09/03 02:44:27;;;;;;;2.85;1.37;;;21.00;73.80;;;;;;2257210;56;20926;-67
2023/09/03 02:46:54;;;;;;;5.95;1.27;;;21.00;73.60;;;;;;2484196;55;20981;-68
2023/09/03 02:49:22;;;;;;;2.80;1.35;;;21.00;73.90;;;;;;2485125;55;20949;-70
2023/09/03 02:51:48;;;;;;;4.55;1.77;;;20.90;74.00;;;;;;2257519;56;20997;-68
2023/09/03 02:54:14;;;;;;;2.47;1.00;;;20.90;74.20;;;;;;2485078;55;21006;-68
2023/09/03 02:56:42;;;;;;;3.22;1.45;;;20.90;74.20;;;;;;2485060;55;20965;-67
2023/09/03 02:59:08;;;;;;;3.50;1.20;;;20.90;74.30;;;;;;2257154;56;20953;-67
2023/09/03 03:01:34;;;;;;;2.78;1.25;;;20.80;74.30;;;;;;2250948;56;21822;-67
2023/09/03 03:04:01;;;;;;;4.55;1.52;;;20.90;74.50;;;;;;2254517;56;20949;-68
2023/09/03 03:06:27;;;;;;;4.32;1.37;;;20.80;74.40;;;;;;2484684;55;21045;-68
2023/09/03 03:08:54;;;;;;;2.60;1.05;;;20.80;74.50;;;;;;2484474;55;20959;-67
2023/09/03 03:11:20;;;;;;;2.87;1.20;;;20.90;74.50;;;;;;2483657;55;21515;-68
2023/09/03 03:13:50;;;;;;;2.80;1.30;;;20.80;75.00;;;;;;2484918;55;20970;-69
2023/09/03 03:16:16;;;;;;;2.47;0.98;;;20.80;74.10;;;;;;2256581;56;20950;-68
2023/09/03 03:18:43;;;;;;;2.67;1.25;;;20.80;74.00;;;;;;2257154;56;20977;-70
2023/09/03 03:21:18;;;;;;;3.25;1.10;;;20.80;74.00;;;;;;2256855;56;20966;-68
2023/09/03 03:23:46;;;;;;;3.60;1.67;;;20.80;74.50;;;;;;2449941;55;21057;-68
2023/09/03 03:26:13;;;;;;;2.72;1.23;;;20.70;74.10;;;;;;2481375;55;21839;-68
2023/09/03 03:28:39;;;;;;;3.28;1.40;;;20.70;74.20;;;;;;2478002;55;20970;-67
2023/09/03 03:31:15;;;;;;;2.70;1.15;;;20.70;74.20;;;;;;2255407;56;21006;-69
2023/09/03 03:33:42;;;;;;;2.97;1.48;;;20.70;73.80;;;;;;2481832;55;21025;-68
2023/09/03 03:36:13;;;;;;;3.03;1.20;;;20.70;74.30;;;;;;2478288;55;20950;-69
2023/09/03 03:38:41;;;;;;;2.87;1.20;;;20.70;74.20;;;;;;2258255;56;20925;-67
2023/09/03 03:41:11;;;;;;;2.30;1.15;;;20.70;74.30;;;;;;2279020;55;20915;-67
2023/09/03 03:43:42;;;;;;;2.70;1.10;;;20.60;74.00;;;;;;2278478;56;20923;-68
2023/09/03 03:46:10;;;;;;;2.72;1.20;;;20.60;73.90;;;;;;2267711;55;20957;-69
2023/09/03 03:48:36;;;;;;;3.25;1.10;;;20.60;74.20;;;;;;2255168;56;20973;-67
2023/09/03 03:51:02;;;;;;;2.15;0.90;;;20.60;74.20;;;;;;2258269;56;20958;-67
2023/09/03 03:53:29;;;;;;;2.30;1.15;;;20.60;74.20;;;;;;2283188;55;20948;-67
2023/09/03 03:56:05;;;;;;;2.40;1.12;;;20.60;74.20;;;;;;2282229;55;21103;-68
2023/09/03 03:58:33;;;;;;;2.53;1.17;;;20.50;73.60;;;;;;2257117;56;20969;-67
2023/09/03 04:01:00;;;;;;;2.80;1.20;;;20.50;74.10;;;;;;2262193;56;21348;-67
2023/09/03 04:03:28;;;;;;;3.08;1.30;;;20.50;74.30;;;;;;2482844;55;21003;-69
2023/09/03 04:06:02;;;;;;;2.25;1.10;;;20.50;74.40;;;;;;2258921;56;20962;-69
2023/09/03 04:08:32;;;;;;;2.12;1.05;;;20.50;74.00;;;;;;2282655;56;21006;-70
2023/09/03 04:11:00;;;;;;;5.00;1.55;;;20.50;74.40;;;;;;2273096;56;20946;-68
2023/09/03 04:13:27;;;;;;;2.40;1.10;;;20.50;74.40;;;;;;2484531;55;20979;-69
2023/09/03 04:15:58;;;;;;;2.47;1.12;;;20.50;74.40;;;;;;2484075;55;21060;-69
2023/09/03 04:18:26;;;;;;;3.87;1.10;;;20.50;74.40;;;;;;2257155;56;20978;-68
2023/09/03 04:20:56;;;;;;;4.18;1.37;;;20.50;74.60;;;;;;2502324;55;21011;-67
2023/09/03 04:23:22;;;;;;;3.67;1.10;;;20.50;74.60;;;;;;2278522;56;21017;-68
2023/09/03 04:25:50;;;;;;;2.60;1.20;;;20.40;74.50;;;;;;2497189;55;20995;-68
2023/09/03 04:28:16;;;;;;;3.55;1.10;;;20.40;74.50;;;;;;2484370;55;20974;-69
2023/09/03 04:30:43;;;;;;;2.20;1.00;;;20.40;74.50;;;;;;2256454;56;20993;-70
2023/09/03 04:33:09;;;;;;;3.17;1.10;;;20.40;74.50;;;;;;2482943;55;20947;-66
2023/09/03 04:35:36;;;;;;;2.30;1.15;;;20.40;74.40;;;;;;2245743;56;20944;-68
2023/09/03 04:38:02;;;;;;;2.40;1.02;;;20.40;74.40;;;;;;2225765;56;20924;-70
2023/09/03 04:40:33;;;;;;;2.95;1.10;;;20.40;74.40;;;;;;2253528;56;21088;-67
2023/09/03 04:42:59;;;;;;;3.95;1.50;;;20.40;74.30;;;;;;2254669;56;21062;-68
2023/09/03 04:45:27;;;;;;;3.58;1.42;;;20.40;74.50;;;;;;2255227;56;20977;-69
2023/09/03 04:47:54;;;;;;;4.12;1.30;;;20.40;74.60;;;;;;2472275;55;20972;-69
2023/09/03 04:50:20;;;;;;;3.00;1.30;;;20.30;74.70;;;;;;2287689;55;20996;-67
2023/09/03 04:52:48;;;;;;;2.58;1.37;;;20.30;74.70;;;;;;2287860;55;21005;-68
2023/09/03 04:55:15;;;;;;;4.20;1.42;;;20.30;74.80;;;;;;2287424;55;20987;-67
2023/09/03 04:57:41;;;;;;;3.22;1.50;;;20.30;74.90;;;;;;2287739;55;20968;-67
2023/09/03 05:00:11;;;;;;;3.17;1.45;;;20.40;75.10;;;;;;2505874;55;21016;-67
2023/09/03 05:02:40;;;;;;;2.33;1.00;;;20.40;75.10;;;;;;2274686;55;20963;-70
2023/09/03 05:05:07;;;;;;;2.65;1.30;;;20.30;75.00;;;;;;2287024;55;20970;-69
2023/09/03 05:07:33;;;;;;;3.10;1.23;;;20.30;74.90;;;;;;2285766;55;20961;-67
2023/09/03 05:10:00;;;;;;;2.22;1.10;;;20.40;75.00;;;;;;2287341;55;20962;-70
2023/09/03 05:12:29;;;;;;;2.35;1.20;;;20.40;74.90;;;;;;2522072;55;20918;-66
2023/09/03 05:14:55;;;;;;;3.03;1.37;;;20.40;74.80;;;;;;2515924;54;20959;-68
2023/09/03 05:17:22;;;;;;;3.58;1.30;;;20.40;75.00;;;;;;2287109;55;20935;-68
2023/09/03 05:19:50;;;;;;;2.50;1.25;;;20.40;75.00;;;;;;2285922;55;21536;-70
2023/09/03 05:22:16;;;;;;;2.50;1.20;;;20.40;75.10;;;;;;2521628;55;20988;-69
2023/09/03 05:24:43;;;;;;;1.98;1.00;;;20.30;75.00;;;;;;2283981;56;21273;-70
2023/09/03 05:27:09;;;;;;;2.75;1.10;;;20.40;75.20;;;;;;2256768;56;20967;-66
2023/09/03 05:29:37;;;;;;;2.90;1.35;;;20.40;75.10;;;;;;2480749;55;21000;-67
2023/09/03 05:32:05;;;;;;;2.30;1.05;;;20.40;75.10;;;;;;2485247;55;21108;-67
2023/09/03 05:34:33;;;;;;;2.90;1.17;;;20.40;75.10;;;;;;2484200;55;20938;-68
2023/09/03 05:37:00;;;;;;;3.83;1.12;;;20.40;75.00;;;;;;2481176;55;21713;-68
2023/09/03 05:39:26;;;;;;;3.08;1.45;;;20.40;75.10;;;;;;2262694;56;21053;-67
2023/09/03 05:41:53;;;;;;;2.37;1.33;;;20.40;75.10;;;;;;2484685;55;21073;-67
2023/09/03 05:44:19;;;;;;;3.30;1.50;;;20.40;75.20;;;;;;2493480;55;21329;-67
2023/09/03 05:46:45;;;;;;;2.60;1.20;;;20.40;75.20;;;;;;2484276;55;21504;-68
2023/09/03 05:49:12;;;;;;;2.80;1.45;;;20.40;75.20;;;;;;2484691;55;20967;-70
2023/09/03 05:51:40;;;;;;;3.65;1.70;;;20.40;76.00;;;;;;2247538;56;21041;-67
2023/09/03 05:54:06;;;;;;;3.10;1.60;;;20.40;75.20;;;;;;2240872;56;20978;-68
2023/09/03 05:56:34;;;;;;;3.42;1.98;;;20.50;75.40;;;;;;2256876;56;21039;-68
2023/09/03 05:59:05;;;;;;;5.15;2.30;;;20.40;75.30;;;;;;2255529;56;20955;-67
2023/09/03 06:01:32;;;;;;;4.32;2.50;;;20.50;75.50;;;;;;2497017;55;21002;-67
2023/09/03 06:04:02;;;;;;;4.97;2.50;;;20.50;75.60;;;;;;2241953;56;20993;-68
2023/09/03 06:06:29;;;;;;;4.18;2.33;;;20.50;75.70;;;;;;2469123;55;20989;-68
2023/09/03 06:08:55;;;;;;;4.18;2.45;;;20.50;75.80;;;;;;2251331;56;21011;-68
2023/09/03 06:11:21;;;;;;;4.93;2.17;;;20.60;76.00;;;;;;2450961;55;20928;-67
2023/09/03 06:13:50;;;;;;;4.43;2.28;;;20.60;76.00;;;;;;2508980;55;20975;-67
2023/09/03 06:16:17;;;;;;;5.15;2.20;;;20.60;76.10;;;;;;2251333;55;20949;-67
2023/09/03 06:18:43;;;;;;;3.00;1.50;;;20.70;76.30;;;;;;2516069;55;20947;-68
2023/09/03 06:21:10;;;;;;;3.67;1.70;;;20.70;76.30;;;;;;2262148;56;21543;-68
2023/09/03 06:23:36;;;;;;;3.05;1.62;;;20.70;76.40;;;;;;2483760;55;21001;-67
2023/09/03 06:26:02;;;;;;;4.25;1.83;;;20.80;76.50;;;;;;2483726;55;21030;-68
2023/09/03 06:28:29;;;;;;;3.42;1.85;;;20.80;76.50;;;;;;2484484;55;21017;-68
2023/09/03 06:30:58;;;;;;;3.72;1.98;;;20.90;76.70;;;;;;2484123;55;21016;-68
2023/09/03 06:33:25;;;;;;;3.80;2.20;;;20.90;76.80;;;;;;2256185;56;21479;-68
2023/09/03 06:35:51;;;;;;;3.55;2.00;;;20.90;77.00;;;;;;2256285;56;20962;-68
2023/09/03 06:38:17;;;;;;;3.75;2.30;;;21.00;77.10;;;;;;2256585;56;21004;-67
2023/09/03 06:40:44;;;;;;;4.00;2.03;;;21.00;77.30;;;;;;2236957;56;21501;-68
2023/09/03 06:43:10;;;;;;;5.62;2.80;;;21.10;77.50;;;;;;2256947;56;20913;-69
2023/09/03 06:45:43;;;;;;;5.35;2.85;;;21.20;77.70;;;;;;2484097;55;21371;-67
2023/09/03 06:48:10;;;;;;;5.10;3.15;;;21.20;77.70;;;;;;2483974;55;21010;-68
2023/09/03 06:50:40;;;;;;;5.22;2.67;;;21.30;77.80;;;;;;2484321;55;21497;-67
2023/09/03 06:53:07;;;;;;;4.45;2.92;;;21.40;78.00;;;;;;2253234;56;21122;-67
2023/09/03 06:55:33;;;;;;;5.20;3.10;;;21.40;78.10;;;;;;2253693;59;21074;-69
2023/09/03 06:57:59;;;;;;;4.55;2.85;;;21.50;78.30;;;;;;2252799;59;21115;-68
2023/09/03 07:00:27;;;;;;;4.15;2.65;;;21.60;78.30;;;;;;2480053;55;21129;-69
2023/09/03 07:02:53;;;;;;;5.00;3.00;;;21.70;78.40;;;;;;2480100;55;21121;-68
2023/09/03 07:05:23;;;;;;;4.45;2.72;;;21.70;78.40;;;;;;2251808;59;21062;-69
2023/09/03 07:07:50;;;;;;;4.78;2.25;;;21.80;78.50;;;;;;2479824;55;21134;-67
2023/09/03 07:10:17;;;;;;;4.40;2.10;;;21.90;78.70;;;;;;2480032;55;21066;-71
2023/09/03 07:12:43;;;;;;;5.93;2.28;;;22.00;78.70;;;;;;2252185;59;21083;-68
2023/09/03 07:15:10;;;;;;;4.00;2.65;;;22.00;78.70;;;;;;2252327;59;21074;-69
2023/09/03 07:17:36;;;;;;;5.35;1.90;;;22.10;78.90;;;;;;2252677;59;21134;-69
2023/09/03 07:20:03;;;;;;;3.42;1.83;;;22.20;78.70;;;;;;2482434;55;21093;-68
2023/09/03 07:22:29;;;;;;;3.17;1.90;;;22.30;78.60;;;;;;2481097;55;21391;-67
2023/09/03 07:24:55;;;;;;;3.30;1.98;;;22.30;78.50;;;;;;2481205;55;22072;-68
2023/09/03 07:27:22;;;;;;;3.75;2.20;;;22.40;78.40;;;;;;2480554;55;21070;-66
2023/09/03 07:29:52;;;;;;;3.42;1.87;;;22.40;78.30;;;;;;2481157;55;21766;-66
2023/09/03 07:32:22;;;;;;;4.28;2.00;;;22.50;78.10;;;;;;2253708;59;21082;-68
2023/09/03 07:34:52;;;;;;;3.30;2.00;;;22.60;78.90;;;;;;2480844;55;21067;-66
2023/09/03 07:37:19;;;;;;;4.22;2.12;;;22.60;78.20;;;;;;2481479;55;21118;-69
2023/09/03 07:39:47;;;;;;;3.70;1.90;;;22.70;78.30;;;;;;2481204;55;21966;-69
2023/09/03 07:42:14;;;;;;;4.95;2.15;;;22.80;78.40;;;;;;2480638;55;21086;-67
2023/09/03 07:44:41;;;;;;;4.37;2.10;;;22.80;78.30;;;;;;2253467;59;22047;-70
2023/09/03 07:47:07;;;;;;;3.85;2.20;;;22.80;78.30;;;;;;2480906;55;21063;-67
2023/09/03 07:49:33;;;;;;;3.60;2.00;;;22.90;78.40;;;;;;2253305;59;21955;-67
2023/09/03 07:52:00;;;;;;;3.10;1.95;;;23.00;78.40;;;;;;2253093;59;21134;-69
2023/09/03 07:54:26;;;;;;;3.10;1.87;;;23.00;78.20;;;;;;2253275;59;21086;-68
2023/09/03 07:56:54;;;;;;;6.53;1.85;;;23.10;78.10;;;;;;2480808;55;21066;-69
2023/09/03 07:59:21;;;;;;;3.53;1.95;;;23.10;77.90;;;;;;2481046;55;21098;-69
2023/09/03 08:01:48;;;;;;;5.60;2.10;;;23.20;78.00;;;;;;2253730;59;21093;-71
2023/09/03 08:04:16;;;;;;;3.33;2.10;;;23.20;77.80;;;;;;2252985;59;21078;-67
2023/09/03 08:06:43;;;;;;;3.45;2.25;;;23.30;77.80;;;;;;2253411;59;21142;-66
2023/09/03 08:09:09;;;;;;;4.05;1.90;;;23.40;77.90;;;;;;2253033;59;21130;-66
2023/09/03 08:11:40;;;;;;;3.95;1.95;;;23.40;78.00;;;;;;2481372;55;21083;-68
2023/09/03 08:14:06;;;;;;;3.80;1.75;;;23.40;78.00;;;;;;2480949;55;22052;-68
2023/09/03 08:16:33;;;;;;;3.95;1.80;;;23.50;78.00;;;;;;2253629;59;21102;-67
2023/09/03 08:19:00;;;;;;;3.37;1.87;;;23.50;77.90;;;;;;2480375;55;21178;-67
2023/09/03 08:21:26;;;;;;;3.30;1.90;;;23.60;77.90;;;;;;2253493;59;21489;-68
2023/09/03 08:23:53;;;;;;;3.17;1.87;;;23.60;77.80;;;;;;2468978;55;21086;-69
2023/09/03 08:26:19;;;;;;;3.55;2.05;;;23.70;77.90;;;;;;2253568;57;20975;-67
2023/09/03 08:28:46;;;;;;;3.85;2.20;;;23.70;77.90;;;;;;2260135;56;21136;-68
2023/09/03 08:31:13;;;;;;;5.10;1.98;;;23.80;77.90;;;;;;2497752;54;20977;-67
2023/09/03 08:33:40;;;;;;;4.50;2.03;;;23.80;77.80;;;;;;2514775;54;21019;-69
2023/09/03 08:36:07;;;;;;;3.85;2.17;;;23.90;77.90;;;;;;2273757;56;21060;-67
2023/09/03 08:38:33;;;;;;;5.75;2.33;;;23.90;77.90;;;;;;2482986;54;21488;-67
2023/09/03 08:41:00;;;;;;;3.90;2.30;;;24.00;77.80;;;;;;2262848;56;21049;-68
2023/09/03 08:43:28;;;;;;;5.37;1.98;;;24.10;77.90;;;;;;2277489;55;21542;-67
2023/09/03 08:46:01;;;;;;;3.15;1.80;;;24.10;77.90;;;;;;2280913;56;21011;-69
2023/09/03 08:48:31;;;;;;;3.42;1.83;;;24.20;77.60;;;;;;2498587;54;21020;-69
2023/09/03 08:50:57;;;;;;;3.67;1.83;;;24.20;78.00;;;;;;2490234;54;20956;-67
2023/09/03 08:53:23;;;;;;;4.05;1.98;;;24.30;78.00;;;;;;2515164;55;21039;-67
2023/09/03 08:55:50;;;;;;;4.32;2.08;;;24.40;78.20;;;;;;2256832;56;21021;-67
2023/09/03 08:58:16;;;;;;;3.95;2.20;;;24.40;78.10;;;;;;2254863;56;20986;-68
2023/09/03 09:00:42;;;;;;;3.90;2.00;;;24.50;78.10;;;;;;2474223;55;21126;-66
2023/09/03 09:03:11;;;;;;;3.30;1.77;;;24.60;78.10;;;;;;2261765;56;21016;-68
2023/09/03 09:05:42;;;;;;;3.35;1.90;;;24.60;77.80;;;;;;2256067;56;20977;-67
2023/09/03 09:08:09;;;;;;;3.33;1.60;;;24.70;77.80;;;;;;2483869;55;20979;-67
2023/09/03 09:10:40;;;;;;;5.40;2.80;;;24.70;77.80;;;;;;2484406;55;21006;-68
2023/09/03 09:13:08;;;;;;;3.95;2.12;;;24.80;77.50;;;;;;2483970;55;20970;-69
2023/09/03 09:15:35;;;;;;;4.85;1.85;;;24.80;77.60;;;;;;2256071;56;21829;-70
2023/09/03 09:18:12;;;;;;;3.55;1.65;;;24.90;77.70;;;;;;2256011;56;21471;-69
2023/09/03 09:20:39;;;;;;;3.25;1.98;;;25.00;77.60;;;;;;2256382;56;21761;-67
2023/09/03 09:23:07;;;;;;;2.83;1.55;;;25.00;77.60;;;;;;2483530;55;21283;-68
2023/09/03 09:25:33;;;;;;;3.50;2.00;;;25.10;77.50;;;;;;2485195;55;20999;-69
2023/09/03 09:28:12;;;;;;;3.00;1.80;;;25.20;77.50;;;;;;2256165;56;20993;-71
2023/09/03 09:30:58;;;;;;;3.25;1.67;;;25.20;76.70;;;;;;2263671;54;137606;-84
2023/09/03 09:33:24;;;;;;;3.25;1.50;;;25.30;76.70;;;;;;2454162;55;40053;-85
2023/09/03 09:35:51;;;;;;;2.85;1.55;;;25.30;77.50;;;;;;2507251;54;21025;-85
2023/09/03 09:38:17;;;;;;;3.40;1.70;;;25.40;77.60;;;;;;2269128;55;20962;-86
2023/09/03 09:40:43;;;;;;;3.20;1.77;;;25.50;77.60;;;;;;2477013;55;21036;-85
2023/09/03 09:43:10;;;;;;;2.97;1.80;;;25.50;77.50;;;;;;2248842;55;22116;-84
2023/09/03 09:45:49;;;;;;;3.10;1.65;;;25.60;77.50;;;;;;2474683;55;21334;-85
2023/09/03 09:48:15;;;;;;;3.20;1.62;;;25.70;76.60;;;;;;2473990;55;21045;-82
2023/09/03 09:50:46;;;;;;;4.22;2.00;;;25.70;77.50;;;;;;2474407;55;20992;-84
2023/09/03 09:53:23;;;;;;;3.20;1.75;;;25.80;76.80;;;;;;2474519;55;20985;-84
2023/09/03 09:56:02;;;;;;;3.05;1.65;;;25.80;76.50;;;;;;2474231;55;21059;-82
2023/09/03 09:58:38;;;;;;;2.95;1.67;;;25.90;76.10;;;;;;2474691;55;21012;-84
2023/09/03 10:01:05;;;;;;;2.92;1.50;;;26.00;76.40;;;;;;2249198;55;20956;-87
2023/09/03 10:03:42;;;;;;;3.10;1.80;;;26.00;76.90;;;;;;2453486;55;21585;-82
2023/09/03 10:06:08;;;;;;;4.55;2.58;;;26.10;75.90;;;;;;2474394;55;20944;-83
2023/09/03 10:08:35;;;;;;;4.43;2.42;;;26.10;76.70;;;;;;2474958;55;20977;-83
2023/09/03 10:11:01;;;;;;;3.03;1.85;;;26.20;76.70;;;;;;2473909;55;20993;-85
2023/09/03 10:13:29;;;;;;;5.45;2.58;;;26.20;76.60;;;;;;2474843;55;20985;-84
2023/09/03 10:15:55;;;;;;;3.70;2.30;;;26.30;76.40;;;;;;2474521;55;21059;-84
2023/09/03 10:18:22;;;;;;;3.20;1.98;;;26.30;76.40;;;;;;2474421;55;22106;-85
2023/09/03 10:20:48;;;;;;;5.15;2.10;;;26.40;76.30;;;;;;2248430;55;24866;-84
2023/09/03 10:23:16;;;;;;;5.57;1.70;;;26.40;76.00;;;;;;2248451;55;20980;-85
2023/09/03 10:25:42;;;;;;;3.67;1.73;;;26.50;76.10;;;;;;2475009;55;21055;-85
2023/09/03 10:28:09;;;;;;;2.92;1.67;;;26.50;75.90;;;;;;2248224;55;21020;-84
2023/09/03 10:30:39;;;;;;;3.65;1.90;;;26.60;76.00;;;;;;2475073;55;21476;-84
2023/09/03 10:33:09;;;;;;;3.10;1.55;;;26.60;75.70;;;;;;2474197;55;21024;-84
2023/09/03 10:35:35;;;;;;;3.85;1.98;;;26.70;75.60;;;;;;2475099;55;21027;-83
2023/09/03 10:38:01;;;;;;;5.03;2.12;;;26.70;75.90;;;;;;2473920;55;21442;-85
2023/09/03 10:40:29;;;;;;;3.80;2.28;;;26.80;75.90;;;;;;2474943;55;20965;-87
2023/09/03 10:43:32;;;;;;;4.25;2.55;;;26.80;75.70;;;;;;2474148;55;21012;-84
2023/09/03 10:46:05;;;;;;;3.42;2.20;;;26.90;74.10;;;;;;2439829;56;20957;-84
2023/09/03 10:48:31;;;;;;;3.47;2.05;;;27.00;74.40;;;;;;2247153;55;21077;-84
2023/09/03 10:50:57;;;;;;;3.62;2.30;;;27.00;75.10;;;;;;2248318;55;21021;-84
2023/09/03 10:53:42;;;;;;;3.08;1.60;;;27.00;75.10;;;;;;2474119;55;21069;-84
2023/09/03 10:56:27;;;;;;;2.85;1.60;;;27.10;73.20;;;;;;2473714;55;21029;-83
2023/09/03 10:58:55;;;;;;;3.33;1.65;;;27.20;73.30;;;;;;2473463;55;20949;-83
2023/09/03 11:01:24;;;;;;;2.92;1.48;;;27.20;74.60;;;;;;2474340;55;20972;-83
2023/09/03 11:03:52;;;;;;;2.78;1.50;;;27.20;74.60;;;;;;2248149;55;21445;-82
2023/09/03 11:06:31;;;;;;;2.90;1.40;;;27.30;74.90;;;;;;2474918;55;21048;-83
2023/09/03 11:09:31;;;;;;;2.42;1.35;;;27.30;73.50;;;;;;2223247;57;21177;-83
2023/09/03 11:12:01;;;;;;;4.85;1.58;;;27.40;73.10;;;;;;2248185;55;20981;-83
2023/09/03 11:14:29;;;;;;;4.15;1.50;;;27.40;74.30;;;;;;2470190;55;21789;-83
2023/09/03 11:16:58;;;;;;;2.78;1.50;;;27.50;74.50;;;;;;2257026;55;21065;-83
2023/09/03 11:19:25;;;;;;;2.67;1.25;;;27.50;74.60;;;;;;2484546;55;21032;-82
2023/09/03 11:21:51;;;;;;;3.10;1.20;;;27.60;74.70;;;;;;2483957;55;21024;-83
2023/09/03 11:24:20;;;;;;;4.78;1.40;;;27.60;74.50;;;;;;2484497;55;20968;-84
2023/09/03 11:27:03;;;;;;;2.70;1.40;;;27.70;74.50;;;;;;2483916;55;20974;-83
2023/09/03 11:29:30;;;;;;;3.87;1.52;;;27.80;72.80;;;;;;2484308;55;21040;-82
2023/09/03 11:31:59;;;;;;;3.45;1.40;;;27.80;74.10;;;;;;2256761;55;21043;-83
2023/09/03 11:34:29;;;;;;;2.50;1.20;;;27.80;73.90;;;;;;2255831;55;20941;-83
2023/09/03 11:36:55;;;;;;;2.62;1.30;;;27.90;73.90;;;;;;2254432;55;21621;-83
2023/09/03 11:39:21;;;;;;;2.70;1.40;;;27.90;73.80;;;;;;2484265;55;21085;-86
2023/09/03 11:41:48;;;;;;;2.87;1.50;;;28.00;73.70;;;;;;2485403;55;20964;-85
2023/09/03 11:44:21;;;;;;;2.70;1.20;;;28.00;73.70;;;;;;2485478;55;20972;-85
2023/09/03 11:46:58;;;;;;;2.58;1.40;;;28.10;73.30;;;;;;2486062;55;20953;-85
2023/09/03 11:49:24;;;;;;;2.55;1.23;;;28.20;72.60;;;;;;2484220;55;21000;-85
2023/09/03 11:51:52;;;;;;;2.37;1.20;;;28.20;73.60;;;;;;2485225;55;20984;-85
2023/09/03 11:54:24;;;;;;;4.53;1.73;;;28.30;73.70;;;;;;2480335;54;20980;-84
2023/09/03 11:56:52;;;;;;;2.70;1.30;;;28.30;73.70;;;;;;2482035;55;20976;-85
2023/09/03 11:59:18;;;;;;;2.78;1.50;;;28.40;73.60;;;;;;2256833;55;20965;-84
2023/09/03 12:01:45;;;;;;;2.87;1.52;;;28.40;73.50;;;;;;2485368;55;21262;-85
2023/09/03 12:04:11;;;;;;;2.75;1.52;;;28.50;73.40;;;;;;2257024;55;21280;-85
2023/09/03 12:06:37;;;;;;;2.80;1.20;;;28.60;73.60;;;;;;2485755;55;20975;-81
2023/09/03 12:09:04;;;;;;;2.50;1.12;;;28.60;73.20;;;;;;2256690;55;20965;-81
2023/09/03 12:11:30;;;;;;;3.03;1.42;;;28.70;73.10;;;;;;2485866;55;20972;-81
2023/09/03 12:13:56;;;;;;;2.22;1.08;;;28.70;73.00;;;;;;2484810;55;21084;-81
2023/09/03 12:16:24;;;;;;;2.40;1.23;;;28.80;73.00;;;;;;2258370;55;21437;-81
2023/09/03 12:18:58;;;;;;;2.45;1.27;;;28.80;72.90;;;;;;2258328;55;21103;-82
2023/09/03 12:21:36;;;;;;;2.20;1.15;;;28.90;71.90;;;;;;2487106;55;21876;-81
2023/09/03 12:24:06;;;;;;;4.47;1.15;;;28.90;71.20;;;;;;2485992;55;20969;-81
2023/09/03 12:26:35;;;;;;;2.42;1.25;;;29.00;72.30;;;;;;2486007;54;21480;-81
2023/09/03 12:29:04;;;;;;;2.12;1.17;;;29.00;72.70;;;;;;2251594;55;20997;-81
2023/09/03 12:31:40;;;;;;;2.15;1.00;;;29.10;72.10;;;;;;2486892;55;21116;-82
2023/09/03 12:34:06;;;;;;;2.30;1.15;;;29.10;71.20;;;;;;2485736;55;21018;-83
2023/09/03 12:36:33;;;;;;;5.50;1.48;;;29.10;72.20;;;;;;2486943;55;21004;-81
2023/09/03 12:39:03;;;;;;;4.32;1.40;;;29.20;72.10;;;;;;2485993;55;21474;-81
2023/09/03 12:41:34;;;;;;;2.20;1.00;;;29.20;71.70;;;;;;2486757;55;20959;-81
2023/09/03 12:44:07;;;;;;;1.90;0.93;;;29.30;71.10;;;;;;2258214;55;20940;-81
2023/09/03 12:46:34;;;;;;;2.83;1.50;;;29.30;71.10;;;;;;2487546;55;20980;-82
2023/09/03 12:49:04;;;;;;;2.55;1.40;;;29.30;71.60;;;;;;2485653;55;20945;-81
2023/09/03 12:51:30;;;;;;;4.07;1.27;;;29.30;71.30;;;;;;2486867;55;21020;-80
2023/09/03 12:53:56;;;;;;;2.62;1.12;;;29.40;71.40;;;;;;2486545;55;21060;-79
2023/09/03 12:56:23;;;;;;;2.30;1.10;;;29.40;71.00;;;;;;2484806;55;20976;-80
2023/09/03 12:58:49;;;;;;;2.25;1.10;;;29.50;71.20;;;;;;2484213;55;21015;-79
2023/09/03 13:01:15;;;;;;;2.75;1.25;;;29.50;71.30;;;;;;2483824;55;20968;-80
2023/09/03 13:03:42;;;;;;;2.30;1.10;;;29.50;71.10;;;;;;2484132;55;20976;-80